createdAt,value
2023-05-18T00:02:18.751Z,82.20
2023-05-18T00:04:46.106Z,82.50
2023-05-18T00:07:14.847Z,82.80
2023-05-18T00:09:42.085Z,82.80
2023-05-18T00:12:12.494Z,82.90
2023-05-18T00:14:39.843Z,83.00
2023-05-18T00:17:07.046Z,83.00
2023-05-18T00:19:34.214Z,82.80
2023-05-18T00:22:05.119Z,82.40
2023-05-18T00:24:32.412Z,82.10
2023-05-18T00:26:59.505Z,82.20
2023-05-18T00:29:27.406Z,82.30
2023-05-18T00:31:54.724Z,82.70
2023-05-18T00:34:21.903Z,82.20
2023-05-18T00:36:49.172Z,82.40
2023-05-18T00:39:16.576Z,82.60
2023-05-18T00:41:43.979Z,82.60
2023-05-18T00:44:11.159Z,82.40
2023-05-18T00:46:38.435Z,81.60
2023-05-18T00:49:05.953Z,82.00
2023-05-18T00:51:34.161Z,81.70
2023-05-18T00:54:08.072Z,82.10
2023-05-18T00:56:35.638Z,82.20
2023-05-18T00:59:06.563Z,82.00
2023-05-18T01:01:37.172Z,82.00
2023-05-18T01:04:06.854Z,82.30
2023-05-18T01:06:36.462Z,82.30
2023-05-18T01:09:07.124Z,82.10
2023-05-18T01:11:44.978Z,81.80
2023-05-18T01:14:37.531Z,81.90
2023-05-18T01:17:33.691Z,81.90
2023-05-18T01:20:07.546Z,81.70
2023-05-18T01:22:56.488Z,81.90
2023-05-18T01:25:50.416Z,81.80
2023-05-18T01:28:21.600Z,81.90
2023-05-18T01:30:49.725Z,81.70
2023-05-18T01:33:16.862Z,82.20
2023-05-18T01:35:49.371Z,82.30
2023-05-18T01:38:28.942Z,82.40
2023-05-18T01:41:02.010Z,82.10
2023-05-18T01:43:34.052Z,82.20
2023-05-18T01:46:25.337Z,82.40
2023-05-18T01:48:59.345Z,82.50
2023-05-18T01:51:32.356Z,82.50
2023-05-18T01:54:08.632Z,82.40
2023-05-18T01:56:39.888Z,82.50
2023-05-18T01:59:07.947Z,82.40
2023-05-18T02:01:35.077Z,82.30
2023-05-18T02:04:02.598Z,82.50
2023-05-18T02:06:32.216Z,82.40
2023-05-18T02:08:59.413Z,82.60
2023-05-18T02:11:26.822Z,82.60
2023-05-18T02:13:54.057Z,82.50
2023-05-18T02:16:21.736Z,82.10
2023-05-18T02:18:49.297Z,82.10
2023-05-18T02:21:16.893Z,82.20
2023-05-18T02:23:44.082Z,82.20
2023-05-18T02:26:11.667Z,82.00
2023-05-18T02:28:40.353Z,82.10
2023-05-18T02:31:13.438Z,82.50
2023-05-18T02:33:42.614Z,82.40
2023-05-18T02:36:14.184Z,82.50
2023-05-18T02:38:43.932Z,82.90
2023-05-18T02:41:12.263Z,83.00
2023-05-18T02:43:39.661Z,83.10
2023-05-18T02:46:08.309Z,83.30
2023-05-18T02:48:35.969Z,82.80
2023-05-18T02:51:04.974Z,82.90
2023-05-18T02:53:32.910Z,82.70
2023-05-18T02:56:06.748Z,82.80
2023-05-18T02:58:47.753Z,82.90
2023-05-18T03:01:22.265Z,83.00
2023-05-18T03:03:57.861Z,83.00
2023-05-18T03:06:30.509Z,83.00
2023-05-18T03:08:58.909Z,83.20
2023-05-18T03:11:33.922Z,83.40
2023-05-18T03:14:01.490Z,83.60
2023-05-18T03:16:29.244Z,83.60
2023-05-18T03:18:59.257Z,83.50
2023-05-18T03:21:34.229Z,84.00
2023-05-18T03:24:05.497Z,84.60
2023-05-18T03:26:35.959Z,84.30
2023-05-18T03:29:04.478Z,84.30
2023-05-18T03:31:31.605Z,84.50
2023-05-18T03:34:00.685Z,84.60
2023-05-18T03:36:31.616Z,84.70
2023-05-18T03:38:58.652Z,84.50
2023-05-18T03:41:27.163Z,84.80
2023-05-18T03:43:54.925Z,84.90
2023-05-18T03:46:23.027Z,84.80
2023-05-18T03:48:51.051Z,84.90
2023-05-18T03:51:22.004Z,84.50
2023-05-18T03:53:49.179Z,85.10
2023-05-18T03:56:16.426Z,85.20
2023-05-18T03:58:44.555Z,85.40
2023-05-18T04:01:11.708Z,85.80
2023-05-18T04:03:40.799Z,85.80
2023-05-18T04:06:10.348Z,86.00
2023-05-18T04:08:37.742Z,86.20
2023-05-18T04:11:04.936Z,86.40
2023-05-18T04:13:32.035Z,86.40
2023-05-18T04:15:59.923Z,86.40
2023-05-18T04:18:30.301Z,86.20
2023-05-18T04:20:57.637Z,85.70
2023-05-18T04:23:24.767Z,85.70
2023-05-18T04:25:51.888Z,86.10
2023-05-18T04:28:19.392Z,86.20
2023-05-18T04:30:47.803Z,86.50
2023-05-18T04:33:16.339Z,86.40
2023-05-18T04:35:45.062Z,86.30
2023-05-18T04:38:12.950Z,86.20
2023-05-18T04:40:42.933Z,86.40
2023-05-18T04:43:12.497Z,86.50
2023-05-18T04:45:39.698Z,86.60
2023-05-18T04:48:06.888Z,86.70
2023-05-18T04:50:34.082Z,86.80
2023-05-18T04:53:02.550Z,86.70
2023-05-18T04:55:31.440Z,86.50
2023-05-18T04:58:06.117Z,86.60
2023-05-18T05:00:34.077Z,86.60
2023-05-18T05:03:01.326Z,86.80
2023-05-18T05:05:30.049Z,86.70
2023-05-18T05:07:57.650Z,86.30
2023-05-18T05:10:25.084Z,86.50
2023-05-18T05:12:54.186Z,86.60
2023-05-18T05:15:21.362Z,86.30
2023-05-18T05:17:50.663Z,86.60
2023-05-18T05:20:18.281Z,86.50
2023-05-18T05:22:45.795Z,86.50
2023-05-18T05:25:16.311Z,86.80
2023-05-18T05:27:43.434Z,86.60
2023-05-18T05:30:10.834Z,86.60
2023-05-18T05:32:38.942Z,86.70
2023-05-18T05:35:07.381Z,86.40
2023-05-18T05:37:35.905Z,86.70
2023-05-18T05:40:06.569Z,86.90
2023-05-18T05:42:41.708Z,86.80
2023-05-18T05:45:09.354Z,86.50
2023-05-18T05:47:43.913Z,86.70
2023-05-18T05:50:11.818Z,86.60
2023-05-18T05:52:39.138Z,86.50
2023-05-18T05:55:07.025Z,86.50
2023-05-18T05:57:34.071Z,86.40
2023-05-18T06:00:01.726Z,86.50
2023-05-18T06:02:31.987Z,86.50
2023-05-18T06:04:59.730Z,86.70
2023-05-18T06:07:27.484Z,86.70
2023-05-18T06:09:54.833Z,86.70
2023-05-18T06:12:21.935Z,86.80
2023-05-18T06:14:49.188Z,86.40
2023-05-18T06:17:16.337Z,86.60
2023-05-18T06:19:44.452Z,87.00
2023-05-18T06:22:11.741Z,87.30
2023-05-18T06:24:46.620Z,86.60
2023-05-18T06:27:34.255Z,86.60
2023-05-18T06:30:33.887Z,86.40
2023-05-18T06:33:16.335Z,86.50
2023-05-18T06:35:43.535Z,86.70
2023-05-18T06:38:10.595Z,86.70
2023-05-18T06:40:37.710Z,86.90
2023-05-18T06:43:04.924Z,86.60
2023-05-18T06:45:42.612Z,86.70
2023-05-18T06:48:14.064Z,86.30
2023-05-18T06:50:41.328Z,86.70
2023-05-18T06:53:09.274Z,86.40
2023-05-18T06:55:36.442Z,85.70
2023-05-18T06:58:06.542Z,86.00
2023-05-18T07:00:33.978Z,85.80
2023-05-18T07:03:03.788Z,85.40
2023-05-18T07:05:31.852Z,85.60
2023-05-18T07:07:59.143Z,86.20
2023-05-18T07:10:26.359Z,85.90
2023-05-18T07:12:53.361Z,85.70
2023-05-18T07:15:20.496Z,85.70
2023-05-18T07:17:47.539Z,85.40
2023-05-18T07:20:14.644Z,85.40
2023-05-18T07:22:41.754Z,85.40
2023-05-18T07:25:09.409Z,85.40
2023-05-18T07:27:36.380Z,85.40
2023-05-18T07:30:06.189Z,85.50
2023-05-18T07:32:33.272Z,85.60
2023-05-18T07:35:00.746Z,85.60
2023-05-18T07:37:27.841Z,84.90
2023-05-18T07:39:54.951Z,85.40
2023-05-18T07:42:21.947Z,85.40
2023-05-18T07:44:49.082Z,85.10
2023-05-18T07:47:16.296Z,85.30
2023-05-18T07:49:44.577Z,84.80
2023-05-18T07:52:11.638Z,85.70
2023-05-18T07:54:38.783Z,84.20
2023-05-18T07:57:05.881Z,83.60
2023-05-18T07:59:36.015Z,84.20
2023-05-18T08:02:03.671Z,84.30
2023-05-18T08:04:30.814Z,84.10
2023-05-18T08:07:00.773Z,84.40
2023-05-18T08:09:27.896Z,84.50
2023-05-18T08:11:55.258Z,84.00
2023-05-18T08:14:22.330Z,83.70
2023-05-18T08:16:49.715Z,84.00
2023-05-18T08:19:17.147Z,83.50
2023-05-18T08:21:46.319Z,83.20
2023-05-18T08:24:13.494Z,83.10
2023-05-18T08:26:40.638Z,82.00
2023-05-18T08:29:10.421Z,82.00
2023-05-18T08:31:38.734Z,83.20
2023-05-18T08:34:06.918Z,82.10
2023-05-18T08:36:37.420Z,81.90
2023-05-18T08:39:05.630Z,81.70
2023-05-18T08:41:35.746Z,81.10
2023-05-18T08:44:38.825Z,81.00
2023-05-18T08:47:10.488Z,80.90
2023-05-18T08:49:38.249Z,82.10
2023-05-18T08:52:06.975Z,80.80
2023-05-18T08:54:36.720Z,81.50
2023-05-18T08:57:09.788Z,80.30
2023-05-18T08:59:43.059Z,80.10
2023-05-18T09:02:10.713Z,79.50
2023-05-18T09:04:42.711Z,79.30
2023-05-18T09:07:11.440Z,79.90
2023-05-18T09:09:39.746Z,78.80
2023-05-18T09:12:07.818Z,78.40
2023-05-18T09:14:34.922Z,78.40
2023-05-18T09:17:03.969Z,78.50
2023-05-18T09:19:30.991Z,78.60
2023-05-18T09:21:58.001Z,77.80
2023-05-18T09:24:25.130Z,78.00
2023-05-18T09:26:52.430Z,78.00
2023-05-18T09:29:24.369Z,78.50
2023-05-18T09:31:53.632Z,77.50
2023-05-18T09:34:21.656Z,76.80
2023-05-18T09:36:52.981Z,76.70
2023-05-18T09:39:20.315Z,77.10
2023-05-18T09:41:47.307Z,75.00
2023-05-18T09:44:15.255Z,68.80
2023-05-18T09:46:42.662Z,69.10
2023-05-18T09:49:09.893Z,70.40
2023-05-18T09:51:37.752Z,68.70
2023-05-18T09:54:07.390Z,68.70
2023-05-18T09:56:38.275Z,69.50
2023-05-18T09:59:10.716Z,67.50
2023-05-18T10:01:49.906Z,68.60
2023-05-18T10:04:19.841Z,70.50
2023-05-18T10:06:51.117Z,70.30
2023-05-18T10:09:18.237Z,69.90
2023-05-18T10:11:45.308Z,71.00
2023-05-18T10:14:12.507Z,70.60
2023-05-18T10:16:41.646Z,71.10
2023-05-18T10:19:10.231Z,71.10
2023-05-18T10:21:38.070Z,70.70
2023-05-18T10:24:08.824Z,70.90
2023-05-18T10:26:41.483Z,70.60
2023-05-18T10:29:09.748Z,70.60
2023-05-18T10:31:38.391Z,72.10
2023-05-18T10:34:07.853Z,70.80
2023-05-18T10:36:36.091Z,71.90
2023-05-18T10:39:03.879Z,70.90
2023-05-18T10:41:32.700Z,71.40
2023-05-18T10:44:04.105Z,71.50
2023-05-18T10:46:32.087Z,71.50
2023-05-18T10:49:01.255Z,72.90
2023-05-18T10:51:31.726Z,72.20
2023-05-18T10:54:14.205Z,72.20
2023-05-18T10:56:48.032Z,72.30
2023-05-18T10:59:16.274Z,72.00
2023-05-18T11:01:44.801Z,72.00
2023-05-18T11:04:12.288Z,71.90
2023-05-18T11:06:40.410Z,71.90
2023-05-18T11:09:07.503Z,73.00
2023-05-18T11:12:14.142Z,73.20
2023-05-18T11:14:52.683Z,74.00
2023-05-18T11:17:26.210Z,73.80
2023-05-18T11:20:08.866Z,73.80
2023-05-18T11:22:46.299Z,73.20
2023-05-18T11:25:34.214Z,74.30
2023-05-18T11:28:04.349Z,73.30
2023-05-18T11:30:34.993Z,73.20
2023-05-18T11:33:29.945Z,73.40
2023-05-18T11:36:14.707Z,74.00
2023-05-18T11:38:54.256Z,75.60
2023-05-18T11:41:29.308Z,74.90
2023-05-18T11:44:16.632Z,73.70
2023-05-18T11:47:04.476Z,73.80
2023-05-18T11:49:42.589Z,73.90
2023-05-18T11:52:12.703Z,75.00
2023-05-18T11:55:00.176Z,74.20
2023-05-18T11:57:33.980Z,74.40
2023-05-18T12:00:06.524Z,74.90
2023-05-18T12:02:43.757Z,74.70
2023-05-18T12:05:11.444Z,74.60
2023-05-18T12:07:39.581Z,74.60
2023-05-18T12:10:15.073Z,74.30
2023-05-18T12:12:43.217Z,74.20
2023-05-18T12:15:11.859Z,74.70
2023-05-18T12:17:44.351Z,74.70
2023-05-18T12:20:13.213Z,75.10
2023-05-18T12:22:45.048Z,75.40
2023-05-18T12:25:12.467Z,76.10
2023-05-18T12:27:40.898Z,76.70
2023-05-18T12:30:14.043Z,77.00
2023-05-18T12:32:50.942Z,76.60
2023-05-18T12:35:21.855Z,76.60
2023-05-18T12:37:48.892Z,76.80
2023-05-18T12:40:17.758Z,76.40
2023-05-18T12:43:03.930Z,77.20
2023-05-18T12:45:33.682Z,76.80
2023-05-18T12:48:08.073Z,76.60
2023-05-18T12:50:37.257Z,77.10
2023-05-18T12:53:05.037Z,77.70
2023-05-18T12:55:33.463Z,77.60
2023-05-18T12:58:06.253Z,78.10
2023-05-18T13:00:37.737Z,77.10
2023-05-18T13:03:11.857Z,77.50
2023-05-18T13:05:44.946Z,77.20
2023-05-18T13:08:20.021Z,77.20
2023-05-18T13:10:53.019Z,78.40
2023-05-18T13:13:25.355Z,77.50
2023-05-18T13:15:52.420Z,77.30
2023-05-18T13:18:19.576Z,78.30
2023-05-18T13:20:51.112Z,78.50
2023-05-18T13:23:21.083Z,78.20
2023-05-18T13:25:49.242Z,77.90
2023-05-18T13:28:18.137Z,79.90
2023-05-18T13:30:48.407Z,79.00
2023-05-18T13:33:19.668Z,78.60
2023-05-18T13:35:48.724Z,79.00
2023-05-18T13:38:15.886Z,76.90
2023-05-18T13:40:43.163Z,77.30
2023-05-18T13:43:12.782Z,78.70
2023-05-18T13:45:41.320Z,78.00
2023-05-18T13:48:10.815Z,78.60
2023-05-18T13:50:39.610Z,77.90
2023-05-18T13:57:33.122Z,78.50
2023-05-18T14:00:11.420Z,78.60
2023-05-18T14:02:42.631Z,78.40
2023-05-18T14:05:10.932Z,78.90
2023-05-18T14:07:38.793Z,78.50
2023-05-18T14:10:07.341Z,78.50
2023-05-18T14:12:34.970Z,78.70
2023-05-18T14:15:02.792Z,78.10
2023-05-18T14:17:30.079Z,78.40
2023-05-18T14:19:58.048Z,77.40
2023-05-18T14:22:26.427Z,78.40
2023-05-18T14:24:54.151Z,77.90
2023-05-18T14:27:21.241Z,78.20
2023-05-18T14:29:49.493Z,77.70
2023-05-18T14:32:17.493Z,77.40
2023-05-18T14:34:44.495Z,77.90
2023-05-18T14:37:11.562Z,77.90
2023-05-18T14:39:39.174Z,78.00
2023-05-18T14:42:06.794Z,78.10
2023-05-18T14:44:33.775Z,77.80
2023-05-18T14:47:01.446Z,77.30
2023-05-18T14:49:28.629Z,77.70
2023-05-18T14:51:55.796Z,77.80
2023-05-18T14:54:22.949Z,77.60
2023-05-18T14:56:50.287Z,77.10
2023-05-18T14:59:17.400Z,76.80
2023-05-18T15:01:44.517Z,77.10
2023-05-18T15:04:11.736Z,76.30
2023-05-18T15:06:38.979Z,76.10
2023-05-18T15:09:06.552Z,77.00
2023-05-18T15:11:33.672Z,76.60
2023-05-18T15:14:00.836Z,76.90
2023-05-18T15:16:28.067Z,76.90
2023-05-18T15:18:55.169Z,77.50
2023-05-18T15:21:22.363Z,77.00
2023-05-18T15:23:49.430Z,76.80
2023-05-18T15:26:16.578Z,77.10
2023-05-18T15:28:45.091Z,77.30
2023-05-18T15:31:15.104Z,77.70
2023-05-18T15:33:43.792Z,78.00
2023-05-18T15:36:11.134Z,77.80
2023-05-18T15:38:38.347Z,77.80
2023-05-18T15:41:05.552Z,77.30
2023-05-18T15:43:33.813Z,77.50
2023-05-18T15:46:01.040Z,77.60
2023-05-18T15:48:29.735Z,77.80
2023-05-18T15:50:56.830Z,78.20
2023-05-18T15:53:24.149Z,78.00
2023-05-18T15:55:57.488Z,78.20
2023-05-18T15:58:26.711Z,78.10
2023-05-18T16:00:54.061Z,78.10
2023-05-18T16:03:21.513Z,78.70
2023-05-18T16:05:48.730Z,78.90
2023-05-18T16:08:15.988Z,78.60
2023-05-18T16:10:43.157Z,78.80
2023-05-18T16:13:13.648Z,79.00
2023-05-18T16:15:41.617Z,79.00
2023-05-18T16:18:08.801Z,79.00
2023-05-18T16:20:36.025Z,79.30
2023-05-18T16:23:03.153Z,79.40
2023-05-18T16:25:30.415Z,78.30
2023-05-18T16:27:57.459Z,78.60
2023-05-18T16:30:24.536Z,79.30
2023-05-18T16:32:51.604Z,78.60
2023-05-18T16:35:18.748Z,79.10
2023-05-18T16:37:45.785Z,78.80
2023-05-18T16:40:13.133Z,78.60
2023-05-18T16:43:08.598Z,78.60
2023-05-18T16:45:35.687Z,78.90
2023-05-18T16:48:04.058Z,78.90
2023-05-18T16:50:31.831Z,79.10
2023-05-18T16:52:59.095Z,79.10
2023-05-18T16:55:26.639Z,79.20
2023-05-18T16:57:53.733Z,79.70
2023-05-18T17:00:21.157Z,80.00
2023-05-18T17:02:48.375Z,80.10
2023-05-18T17:05:17.390Z,80.60
2023-05-18T17:07:44.601Z,81.40
2023-05-18T17:10:14.860Z,81.60
2023-05-18T17:12:45.141Z,81.50
2023-05-18T17:15:23.158Z,81.50
2023-05-18T17:17:50.439Z,81.80
2023-05-18T17:20:17.710Z,82.20
2023-05-18T17:23:07.925Z,82.30
2023-05-18T17:25:39.912Z,82.80
2023-05-18T17:28:07.121Z,82.80
2023-05-18T17:30:34.435Z,83.00
2023-05-18T17:33:02.025Z,83.10
2023-05-18T17:35:30.203Z,83.00
2023-05-18T17:37:57.772Z,82.70
2023-05-18T17:40:24.922Z,83.00
2023-05-18T17:42:51.948Z,82.80
2023-05-18T17:49:16.181Z,83.40
2023-05-18T17:51:43.284Z,83.70
2023-05-18T17:54:11.161Z,83.90
2023-05-18T17:57:02.153Z,84.20
2023-05-18T17:59:29.281Z,84.30
2023-05-18T18:01:56.383Z,83.60
2023-05-18T18:04:23.618Z,83.80
2023-05-18T18:06:54.229Z,83.70
2023-05-18T18:09:22.324Z,83.30
2023-05-18T18:11:49.784Z,83.30
2023-05-18T18:14:17.459Z,83.80
2023-05-18T18:16:45.102Z,83.70
2023-05-18T18:19:13.447Z,83.10
2023-05-18T18:21:42.778Z,82.90
2023-05-18T18:24:09.917Z,83.00
2023-05-18T18:26:40.471Z,82.70
2023-05-18T18:29:07.704Z,82.00
2023-05-18T18:31:34.869Z,82.10
2023-05-18T18:34:01.930Z,81.60
2023-05-18T18:36:29.004Z,81.50
2023-05-18T18:38:56.114Z,81.80
2023-05-18T18:41:23.213Z,82.00
2023-05-18T18:43:53.939Z,81.50
2023-05-18T18:46:21.425Z,81.80
2023-05-18T18:48:48.441Z,81.70
2023-05-18T18:51:15.549Z,81.20
2023-05-18T18:53:42.617Z,81.30
2023-05-18T18:56:09.852Z,81.20
2023-05-18T18:58:36.895Z,81.20
2023-05-18T19:01:07.079Z,81.20
2023-05-18T19:03:35.283Z,81.30
2023-05-18T19:06:02.582Z,81.50
2023-05-18T19:08:29.576Z,81.50
2023-05-18T19:10:56.646Z,81.30
2023-05-18T19:13:23.680Z,81.50
2023-05-18T19:15:51.449Z,81.40
2023-05-18T19:18:18.765Z,81.60
2023-05-18T19:20:46.013Z,81.40
2023-05-18T19:23:13.043Z,81.30
2023-05-18T19:25:40.278Z,81.70
2023-05-18T19:28:07.324Z,81.50
2023-05-18T19:30:34.444Z,81.40
2023-05-18T19:33:01.574Z,81.70
2023-05-18T19:35:32.536Z,81.50
2023-05-18T19:38:02.491Z,81.60
2023-05-18T19:40:29.865Z,81.60
2023-05-18T19:42:59.670Z,81.70
2023-05-18T19:45:26.826Z,81.60
2023-05-18T19:47:53.993Z,81.40
2023-05-18T19:50:21.316Z,81.50
2023-05-18T19:52:49.586Z,81.30
2023-05-18T19:55:17.436Z,81.50
2023-05-18T19:57:44.583Z,81.60
2023-05-18T20:00:14.586Z,81.40
2023-05-18T20:02:41.619Z,81.40
2023-05-18T20:05:09.572Z,81.20
2023-05-18T20:07:36.923Z,81.40
2023-05-18T20:10:04.352Z,81.00
2023-05-18T20:12:32.264Z,80.90
2023-05-18T20:14:59.876Z,81.10
2023-05-18T20:17:27.422Z,80.90
2023-05-18T20:19:54.432Z,81.00
2023-05-18T20:22:21.625Z,81.20
2023-05-18T20:24:49.762Z,81.30
2023-05-18T20:27:17.011Z,81.60
2023-05-18T20:29:44.166Z,81.40
2023-05-18T20:32:11.243Z,81.50
2023-05-18T20:34:38.380Z,81.30
2023-05-18T20:37:08.506Z,81.50
2023-05-18T20:39:37.725Z,81.50
2023-05-18T20:42:05.674Z,81.70
2023-05-18T20:44:32.773Z,82.00
2023-05-18T20:47:01.156Z,82.10
2023-05-18T20:49:29.079Z,81.80
2023-05-18T20:51:56.403Z,81.80
2023-05-18T20:54:23.528Z,81.80
2023-05-18T20:56:51.416Z,82.10
2023-05-18T20:59:19.233Z,82.10
2023-05-18T21:01:46.254Z,82.10
2023-05-18T21:04:13.601Z,82.50
2023-05-18T21:06:44.183Z,82.40
2023-05-18T21:09:11.958Z,82.60
2023-05-18T21:11:38.967Z,82.70
2023-05-18T21:14:06.042Z,82.50
2023-05-18T21:16:33.627Z,82.50
2023-05-18T21:19:01.028Z,82.50
2023-05-18T21:21:28.620Z,82.50
2023-05-18T21:23:55.677Z,82.70
2023-05-18T21:26:22.880Z,82.90
2023-05-18T21:28:49.921Z,83.10
2023-05-18T21:31:16.994Z,82.90
2023-05-18T21:33:47.990Z,83.00
2023-05-18T21:36:15.721Z,83.10
2023-05-18T21:38:43.172Z,83.30
2023-05-18T21:41:10.323Z,83.50
2023-05-18T21:43:37.395Z,83.70
2023-05-18T21:46:05.466Z,83.90
2023-05-18T21:48:33.503Z,84.10
2023-05-18T21:51:01.292Z,84.10
2023-05-18T21:53:28.388Z,84.20
2023-05-18T21:55:55.555Z,84.40
2023-05-18T21:58:22.713Z,84.60
2023-05-18T22:00:49.788Z,84.70
2023-05-18T22:03:16.895Z,84.90
2023-05-18T22:05:44.818Z,84.90
2023-05-18T22:08:12.010Z,85.10
2023-05-18T22:10:39.066Z,85.00
2023-05-18T22:13:06.393Z,85.10
2023-05-18T22:15:36.055Z,85.20
2023-05-18T22:18:04.172Z,85.10
2023-05-18T22:20:32.581Z,85.00
2023-05-18T22:23:00.182Z,85.20
2023-05-18T22:25:27.395Z,85.20
2023-05-18T22:27:55.029Z,85.40
2023-05-18T22:30:25.472Z,85.40
2023-05-18T22:32:52.644Z,85.50
2023-05-18T22:35:19.660Z,85.40
2023-05-18T22:37:46.945Z,85.40
2023-05-18T22:40:14.013Z,85.30
2023-05-18T22:42:41.562Z,85.40
2023-05-18T22:45:09.823Z,85.50
2023-05-18T22:47:39.146Z,85.50
2023-05-18T22:50:07.557Z,85.60
2023-05-18T22:52:35.043Z,85.90
2023-05-18T22:55:03.796Z,86.20
2023-05-18T22:57:31.148Z,86.00
2023-05-18T22:59:58.134Z,85.80
2023-05-18T23:02:25.927Z,85.70
2023-05-18T23:04:53.012Z,85.70
2023-05-18T23:07:20.090Z,85.70
2023-05-18T23:09:47.183Z,85.80
2023-05-18T23:12:14.149Z,86.10
2023-05-18T23:14:41.214Z,86.20
2023-05-18T23:17:08.268Z,86.40
2023-05-18T23:19:36.336Z,86.30
2023-05-18T23:22:04.016Z,86.30
2023-05-18T23:24:31.271Z,86.30
2023-05-18T23:26:58.528Z,86.20
2023-05-18T23:29:25.702Z,86.40
2023-05-18T23:31:52.764Z,86.40
2023-05-18T23:34:20.098Z,86.40
2023-05-18T23:36:53.372Z,86.40
2023-05-18T23:39:22.180Z,86.30
2023-05-18T23:41:51.600Z,86.30
2023-05-18T23:44:18.955Z,86.20
2023-05-18T23:46:46.196Z,85.90
2023-05-18T23:49:13.519Z,86.10
2023-05-18T23:51:42.747Z,86.20
2023-05-18T23:54:10.301Z,86.40
2023-05-18T23:56:37.643Z,86.60
2023-05-18T23:59:05.576Z,86.50
